sensor_id;sensor_type;location;lat;lon;timestamp;temperature;humidity
6824;DHT22;58633;49.470;11.004;2024-02-26T00:00:35;6.90;59.70
6824;DHT22;58633;49.470;11.004;2024-02-26T00:03:01;6.70;59.70
6824;DHT22;58633;49.470;11.004;2024-02-26T00:05:27;6.70;59.70
6824;DHT22;58633;49.470;11.004;2024-02-26T00:07:54;6.70;59.80
6824;DHT22;58633;49.470;11.004;2024-02-26T00:10:20;6.70;59.90
6824;DHT22;58633;49.470;11.004;2024-02-26T00:12:46;6.70;59.90
6824;DHT22;58633;49.470;11.004;2024-02-26T00:15:12;6.60;60.20
6824;DHT22;58633;49.470;11.004;2024-02-26T00:17:37;6.70;60.00
6824;DHT22;58633;49.470;11.004;2024-02-26T00:20:04;6.50;60.10
6824;DHT22;58633;49.470;11.004;2024-02-26T00:22:33;6.70;60.40
6824;DHT22;58633;49.470;11.004;2024-02-26T00:24:59;6.70;61.00
6824;DHT22;58633;49.470;11.004;2024-02-26T00:27:24;6.60;60.40
6824;DHT22;58633;49.470;11.004;2024-02-26T00:29:50;6.50;60.30
6824;DHT22;58633;49.470;11.004;2024-02-26T00:32:15;6.50;60.50
6824;DHT22;58633;49.470;11.004;2024-02-26T00:34:41;6.40;60.50
6824;DHT22;58633;49.470;11.004;2024-02-26T00:37:07;6.50;60.60
6824;DHT22;58633;49.470;11.004;2024-02-26T00:39:32;6.70;61.00
6824;DHT22;58633;49.470;11.004;2024-02-26T00:41:58;6.50;60.90
6824;DHT22;58633;49.470;11.004;2024-02-26T00:44:23;6.60;60.90
6824;DHT22;58633;49.470;11.004;2024-02-26T00:46:49;6.60;61.20
6824;DHT22;58633;49.470;11.004;2024-02-26T00:49:14;6.40;61.10
6824;DHT22;58633;49.470;11.004;2024-02-26T00:51:40;6.40;61.10
6824;DHT22;58633;49.470;11.004;2024-02-26T00:54:06;6.40;61.40
6824;DHT22;58633;49.470;11.004;2024-02-26T00:56:31;6.40;61.60
6824;DHT22;58633;49.470;11.004;2024-02-26T00:58:57;6.50;61.70
6824;DHT22;58633;49.470;11.004;2024-02-26T01:01:22;8.20;63.40
6824;DHT22;58633;49.470;11.004;2024-02-26T01:03:48;6.40;62.10
6824;DHT22;58633;49.470;11.004;2024-02-26T01:06:13;6.40;62.00
6824;DHT22;58633;49.470;11.004;2024-02-26T01:08:39;6.50;62.20
6824;DHT22;58633;49.470;11.004;2024-02-26T01:11:05;6.50;62.20
6824;DHT22;58633;49.470;11.004;2024-02-26T01:13:30;6.40;62.20
6824;DHT22;58633;49.470;11.004;2024-02-26T01:15:56;6.40;62.20
6824;DHT22;58633;49.470;11.004;2024-02-26T01:18:21;6.40;62.20
6824;DHT22;58633;49.470;11.004;2024-02-26T01:20:47;6.20;62.10
6824;DHT22;58633;49.470;11.004;2024-02-26T01:23:13;6.30;62.20
6824;DHT22;58633;49.470;11.004;2024-02-26T01:25:38;6.10;62.30
6824;DHT22;58633;49.470;11.004;2024-02-26T01:28:05;6.40;62.70
6824;DHT22;58633;49.470;11.004;2024-02-26T01:30:31;6.30;62.50
6824;DHT22;58633;49.470;11.004;2024-02-26T01:32:57;6.20;62.40
6824;DHT22;58633;49.470;11.004;2024-02-26T01:35:22;6.30;62.60
6824;DHT22;58633;49.470;11.004;2024-02-26T01:37:48;6.30;62.60
6824;DHT22;58633;49.470;11.004;2024-02-26T01:40:14;6.20;62.70
6824;DHT22;58633;49.470;11.004;2024-02-26T01:42:44;7.70;64.00
6824;DHT22;58633;49.470;11.004;2024-02-26T01:45:17;6.30;62.80
6824;DHT22;58633;49.470;11.004;2024-02-26T01:47:50;6.20;62.90
6824;DHT22;58633;49.470;11.004;2024-02-26T01:50:17;6.20;63.00
6824;DHT22;58633;49.470;11.004;2024-02-26T01:52:44;6.00;62.90
6824;DHT22;58633;49.470;11.004;2024-02-26T01:55:12;6.10;63.10
6824;DHT22;58633;49.470;11.004;2024-02-26T01:57:40;6.20;63.40
6824;DHT22;58633;49.470;11.004;2024-02-26T02:00:06;6.20;63.60
6824;DHT22;58633;49.470;11.004;2024-02-26T02:02:32;6.10;63.60
6824;DHT22;58633;49.470;11.004;2024-02-26T02:05:00;6.30;64.00
6824;DHT22;58633;49.470;11.004;2024-02-26T02:07:26;6.20;64.00
6824;DHT22;58633;49.470;11.004;2024-02-26T02:09:53;6.30;64.20
6824;DHT22;58633;49.470;11.004;2024-02-26T02:12:19;6.40;64.60
6824;DHT22;58633;49.470;11.004;2024-02-26T02:14:44;6.20;64.30
6824;DHT22;58633;49.470;11.004;2024-02-26T02:17:10;6.20;64.30
6824;DHT22;58633;49.470;11.004;2024-02-26T02:19:36;6.30;64.50
6824;DHT22;58633;49.470;11.004;2024-02-26T02:22:01;6.30;64.70
6824;DHT22;58633;49.470;11.004;2024-02-26T02:24:27;6.40;64.80
6824;DHT22;58633;49.470;11.004;2024-02-26T02:26:53;6.30;64.50
6824;DHT22;58633;49.470;11.004;2024-02-26T02:29:19;9.50;67.60
6824;DHT22;58633;49.470;11.004;2024-02-26T02:31:44;6.20;64.60
6824;DHT22;58633;49.470;11.004;2024-02-26T02:34:10;6.30;64.50
6824;DHT22;58633;49.470;11.004;2024-02-26T02:36:48;6.00;64.30
6824;DHT22;58633;49.470;11.004;2024-02-26T02:39:15;6.40;65.10
6824;DHT22;58633;49.470;11.004;2024-02-26T02:41:41;6.20;64.90
6824;DHT22;58633;49.470;11.004;2024-02-26T02:44:06;6.20;65.00
6824;DHT22;58633;49.470;11.004;2024-02-26T02:46:32;6.20;65.10
6824;DHT22;58633;49.470;11.004;2024-02-26T02:48:58;6.40;65.30
6824;DHT22;58633;49.470;11.004;2024-02-26T02:51:24;6.10;64.80
6824;DHT22;58633;49.470;11.004;2024-02-26T02:53:50;6.30;65.00
6824;DHT22;58633;49.470;11.004;2024-02-26T02:56:15;6.10;64.90
6824;DHT22;58633;49.470;11.004;2024-02-26T02:58:41;6.20;65.20
6824;DHT22;58633;49.470;11.004;2024-02-26T03:01:06;6.00;65.30
6824;DHT22;58633;49.470;11.004;2024-02-26T03:03:32;6.00;65.50
6824;DHT22;58633;49.470;11.004;2024-02-26T03:05:57;6.10;65.70
6824;DHT22;58633;49.470;11.004;2024-02-26T03:08:24;6.30;65.90
6824;DHT22;58633;49.470;11.004;2024-02-26T03:10:51;6.00;65.70
6824;DHT22;58633;49.470;11.004;2024-02-26T03:13:17;6.10;65.80
6824;DHT22;58633;49.470;11.004;2024-02-26T03:15:42;6.30;65.90
6824;DHT22;58633;49.470;11.004;2024-02-26T03:18:08;6.10;65.80
6824;DHT22;58633;49.470;11.004;2024-02-26T03:20:33;5.90;65.60
6824;DHT22;58633;49.470;11.004;2024-02-26T03:22:59;6.20;66.00
6824;DHT22;58633;49.470;11.004;2024-02-26T03:25:24;6.20;66.40
6824;DHT22;58633;49.470;11.004;2024-02-26T03:27:50;6.20;66.10
6824;DHT22;58633;49.470;11.004;2024-02-26T03:30:16;3.00;63.10
6824;DHT22;58633;49.470;11.004;2024-02-26T03:32:41;6.00;66.00
6824;DHT22;58633;49.470;11.004;2024-02-26T03:35:07;6.20;66.10
6824;DHT22;58633;49.470;11.004;2024-02-26T03:37:33;6.20;66.10
6824;DHT22;58633;49.470;11.004;2024-02-26T03:39:59;6.20;66.30
6824;DHT22;58633;49.470;11.004;2024-02-26T03:42:27;6.30;66.40
6824;DHT22;58633;49.470;11.004;2024-02-26T03:44:53;6.30;66.40
6824;DHT22;58633;49.470;11.004;2024-02-26T03:47:18;6.10;66.00
6824;DHT22;58633;49.470;11.004;2024-02-26T03:49:44;8.90;68.80
6824;DHT22;58633;49.470;11.004;2024-02-26T03:52:10;6.20;66.40
6824;DHT22;58633;49.470;11.004;2024-02-26T03:54:35;6.30;66.70
6824;DHT22;58633;49.470;11.004;2024-02-26T03:57:01;6.10;66.40
6824;DHT22;58633;49.470;11.004;2024-02-26T03:59:27;6.20;66.60
6824;DHT22;58633;49.470;11.004;2024-02-26T04:01:52;6.10;66.50
6824;DHT22;58633;49.470;11.004;2024-02-26T04:04:18;6.40;66.70
6824;DHT22;58633;49.470;11.004;2024-02-26T04:06:47;6.10;66.30
6824;DHT22;58633;49.470;11.004;2024-02-26T04:09:15;6.10;66.40
6824;DHT22;58633;49.470;11.004;2024-02-26T04:11:41;8.90;69.20
6824;DHT22;58633;49.470;11.004;2024-02-26T04:14:08;6.10;66.80
6824;DHT22;58633;49.470;11.004;2024-02-26T04:16:34;6.00;66.70
6824;DHT22;58633;49.470;11.004;2024-02-26T04:19:01;6.20;66.80
6824;DHT22;58633;49.470;11.004;2024-02-26T04:21:26;6.20;66.60
6824;DHT22;58633;49.470;11.004;2024-02-26T04:23:52;6.00;66.70
6824;DHT22;58633;49.470;11.004;2024-02-26T04:26:20;6.10;66.80
6824;DHT22;58633;49.470;11.004;2024-02-26T04:28:46;6.10;66.70
6824;DHT22;58633;49.470;11.004;2024-02-26T04:31:12;6.10;66.90
6824;DHT22;58633;49.470;11.004;2024-02-26T04:33:38;6.00;66.80
6824;DHT22;58633;49.470;11.004;2024-02-26T04:36:04;6.00;66.90
6824;DHT22;58633;49.470;11.004;2024-02-26T04:38:30;6.10;66.90
6824;DHT22;58633;49.470;11.004;2024-02-26T04:40:55;6.20;67.10
6824;DHT22;58633;49.470;11.004;2024-02-26T04:43:21;6.20;67.80
6824;DHT22;58633;49.470;11.004;2024-02-26T04:45:46;6.10;67.00
6824;DHT22;58633;49.470;11.004;2024-02-26T04:48:12;6.50;67.40
6824;DHT22;58633;49.470;11.004;2024-02-26T04:50:37;7.10;68.10
6824;DHT22;58633;49.470;11.004;2024-02-26T04:53:03;6.30;67.30
6824;DHT22;58633;49.470;11.004;2024-02-26T04:55:29;6.20;67.20
6824;DHT22;58633;49.470;11.004;2024-02-26T04:57:54;6.20;67.10
6824;DHT22;58633;49.470;11.004;2024-02-26T05:00:20;9.40;70.10
6824;DHT22;58633;49.470;11.004;2024-02-26T05:02:45;6.00;67.10
6824;DHT22;58633;49.470;11.004;2024-02-26T05:05:11;6.10;67.10
6824;DHT22;58633;49.470;11.004;2024-02-26T05:07:41;6.10;68.00
6824;DHT22;58633;49.470;11.004;2024-02-26T05:10:07;5.90;67.20
6824;DHT22;58633;49.470;11.004;2024-02-26T05:12:35;6.40;68.30
6824;DHT22;58633;49.470;11.004;2024-02-26T05:15:02;7.00;68.90
6824;DHT22;58633;49.470;11.004;2024-02-26T05:17:27;4.80;66.10
6824;DHT22;58633;49.470;11.004;2024-02-26T05:19:53;6.10;67.40
6824;DHT22;58633;49.470;11.004;2024-02-26T05:22:19;6.00;67.20
6824;DHT22;58633;49.470;11.004;2024-02-26T05:24:44;6.20;67.60
6824;DHT22;58633;49.470;11.004;2024-02-26T05:27:10;6.30;67.60
6824;DHT22;58633;49.470;11.004;2024-02-26T05:29:37;6.20;67.50
6824;DHT22;58633;49.470;11.004;2024-02-26T05:32:03;6.20;67.50
6824;DHT22;58633;49.470;11.004;2024-02-26T05:34:29;6.30;67.40
6824;DHT22;58633;49.470;11.004;2024-02-26T05:36:55;6.30;67.50
6824;DHT22;58633;49.470;11.004;2024-02-26T05:39:21;6.40;67.50
6824;DHT22;58633;49.470;11.004;2024-02-26T05:41:47;6.40;67.40
6824;DHT22;58633;49.470;11.004;2024-02-26T05:44:12;8.60;69.60
6824;DHT22;58633;49.470;11.004;2024-02-26T05:46:38;6.30;67.50
6824;DHT22;58633;49.470;11.004;2024-02-26T05:49:04;6.20;67.20
6824;DHT22;58633;49.470;11.004;2024-02-26T05:51:29;6.20;67.10
6824;DHT22;58633;49.470;11.004;2024-02-26T05:53:55;6.30;67.00
6824;DHT22;58633;49.470;11.004;2024-02-26T05:56:23;6.30;67.00
6824;DHT22;58633;49.470;11.004;2024-02-26T05:58:49;6.30;67.10
6824;DHT22;58633;49.470;11.004;2024-02-26T06:01:16;8.90;69.70
6824;DHT22;58633;49.470;11.004;2024-02-26T06:03:42;7.30;68.30
6824;DHT22;58633;49.470;11.004;2024-02-26T06:06:08;6.30;67.40
6824;DHT22;58633;49.470;11.004;2024-02-26T06:08:33;6.20;67.40
6824;DHT22;58633;49.470;11.004;2024-02-26T06:10:59;6.40;68.00
6824;DHT22;58633;49.470;11.004;2024-02-26T06:13:24;6.40;67.60
6824;DHT22;58633;49.470;11.004;2024-02-26T06:15:50;6.60;67.80
6824;DHT22;58633;49.470;11.004;2024-02-26T06:18:16;6.40;67.60
6824;DHT22;58633;49.470;11.004;2024-02-26T06:20:41;6.40;67.50
6824;DHT22;58633;49.470;11.004;2024-02-26T06:23:07;6.40;67.70
6824;DHT22;58633;49.470;11.004;2024-02-26T06:25:32;6.60;68.50
6824;DHT22;58633;49.470;11.004;2024-02-26T06:27:58;6.50;67.80
6824;DHT22;58633;49.470;11.004;2024-02-26T06:30:23;6.50;67.80
6824;DHT22;58633;49.470;11.004;2024-02-26T06:32:49;6.60;67.80
6824;DHT22;58633;49.470;11.004;2024-02-26T06:35:15;6.70;67.80
6824;DHT22;58633;49.470;11.004;2024-02-26T06:37:40;7.30;68.30
6824;DHT22;58633;49.470;11.004;2024-02-26T06:40:09;6.70;67.70
6824;DHT22;58633;49.470;11.004;2024-02-26T06:42:35;6.60;67.60
6824;DHT22;58633;49.470;11.004;2024-02-26T06:45:01;6.70;67.50
6824;DHT22;58633;49.470;11.004;2024-02-26T06:47:26;6.70;67.30
6824;DHT22;58633;49.470;11.004;2024-02-26T06:49:52;6.70;67.10
6824;DHT22;58633;49.470;11.004;2024-02-26T06:52:17;6.90;67.30
6824;DHT22;58633;49.470;11.004;2024-02-26T06:54:43;6.60;66.90
6824;DHT22;58633;49.470;11.004;2024-02-26T06:57:10;6.60;66.90
6824;DHT22;58633;49.470;11.004;2024-02-26T06:59:35;6.70;67.60
6824;DHT22;58633;49.470;11.004;2024-02-26T07:02:01;6.70;68.10
6824;DHT22;58633;49.470;11.004;2024-02-26T07:04:26;6.70;68.20
6824;DHT22;58633;49.470;11.004;2024-02-26T07:06:52;6.70;68.20
6824;DHT22;58633;49.470;11.004;2024-02-26T07:09:17;6.80;68.10
6824;DHT22;58633;49.470;11.004;2024-02-26T07:11:43;6.80;67.80
6824;DHT22;58633;49.470;11.004;2024-02-26T07:14:09;7.00;67.70
6824;DHT22;58633;49.470;11.004;2024-02-26T07:16:35;6.90;67.40
6824;DHT22;58633;49.470;11.004;2024-02-26T07:19:00;6.80;67.30
6824;DHT22;58633;49.470;11.004;2024-02-26T07:21:26;6.90;67.20
6824;DHT22;58633;49.470;11.004;2024-02-26T07:23:52;6.90;67.20
6824;DHT22;58633;49.470;11.004;2024-02-26T07:26:17;6.90;67.00
6824;DHT22;58633;49.470;11.004;2024-02-26T07:28:44;6.90;66.80
6824;DHT22;58633;49.470;11.004;2024-02-26T07:31:10;7.60;67.20
6824;DHT22;58633;49.470;11.004;2024-02-26T07:33:35;6.90;66.20
6824;DHT22;58633;49.470;11.004;2024-02-26T07:36:01;7.20;66.30
6824;DHT22;58633;49.470;11.004;2024-02-26T07:38:27;7.20;66.20
6824;DHT22;58633;49.470;11.004;2024-02-26T07:40:53;7.20;66.00
6824;DHT22;58633;49.470;11.004;2024-02-26T07:43:18;7.80;66.70
6824;DHT22;58633;49.470;11.004;2024-02-26T07:45:44;7.20;66.00
6824;DHT22;58633;49.470;11.004;2024-02-26T07:48:09;7.60;66.30
6824;DHT22;58633;49.470;11.004;2024-02-26T07:50:35;7.60;66.30
6824;DHT22;58633;49.470;11.004;2024-02-26T07:53:00;7.50;66.00
6824;DHT22;58633;49.470;11.004;2024-02-26T07:55:26;7.70;66.00
6824;DHT22;58633;49.470;11.004;2024-02-26T07:57:51;7.70;65.70
6824;DHT22;58633;49.470;11.004;2024-02-26T08:00:17;7.70;65.40
6824;DHT22;58633;49.470;11.004;2024-02-26T08:02:43;7.80;65.10
6824;DHT22;58633;49.470;11.004;2024-02-26T08:05:09;7.90;64.70
6824;DHT22;58633;49.470;11.004;2024-02-26T08:07:35;7.90;64.50
6824;DHT22;58633;49.470;11.004;2024-02-26T08:10:00;8.00;64.40
6824;DHT22;58633;49.470;11.004;2024-02-26T08:12:26;7.90;64.10
6824;DHT22;58633;49.470;11.004;2024-02-26T08:14:51;8.00;64.10
6824;DHT22;58633;49.470;11.004;2024-02-26T08:17:17;7.90;63.80
6824;DHT22;58633;49.470;11.004;2024-02-26T08:19:42;7.90;63.60
6824;DHT22;58633;49.470;11.004;2024-02-26T08:22:08;8.10;63.50
6824;DHT22;58633;49.470;11.004;2024-02-26T08:24:35;8.10;63.30
6824;DHT22;58633;49.470;11.004;2024-02-26T08:27:01;8.00;63.00
6824;DHT22;58633;49.470;11.004;2024-02-26T08:29:26;8.20;63.00
6824;DHT22;58633;49.470;11.004;2024-02-26T08:31:52;8.00;62.70
6824;DHT22;58633;49.470;11.004;2024-02-26T08:34:17;8.20;62.70
6824;DHT22;58633;49.470;11.004;2024-02-26T08:36:44;8.10;62.60
6824;DHT22;58633;49.470;11.004;2024-02-26T08:39:10;10.00;63.10
6824;DHT22;58633;49.470;11.004;2024-02-26T08:41:35;8.20;62.60
6824;DHT22;58633;49.470;11.004;2024-02-26T08:44:01;8.20;62.50
6824;DHT22;58633;49.470;11.004;2024-02-26T08:46:26;8.30;62.60
6824;DHT22;58633;49.470;11.004;2024-02-26T08:48:52;8.30;62.40
6824;DHT22;58633;49.470;11.004;2024-02-26T08:51:17;8.30;62.30
6824;DHT22;58633;49.470;11.004;2024-02-26T08:53:43;8.40;63.10
6824;DHT22;58633;49.470;11.004;2024-02-26T08:56:08;8.40;62.50
6824;DHT22;58633;49.470;11.004;2024-02-26T08:58:34;8.40;62.30
6824;DHT22;58633;49.470;11.004;2024-02-26T09:00:59;8.50;62.40
6824;DHT22;58633;49.470;11.004;2024-02-26T09:03:25;8.70;62.60
6824;DHT22;58633;49.470;11.004;2024-02-26T09:05:51;8.90;62.80
6824;DHT22;58633;49.470;11.004;2024-02-26T09:08:17;8.80;62.60
6824;DHT22;58633;49.470;11.004;2024-02-26T09:10:42;8.90;63.20
6824;DHT22;58633;49.470;11.004;2024-02-26T09:13:08;9.10;62.70
6824;DHT22;58633;49.470;11.004;2024-02-26T09:15:34;9.00;62.50
6824;DHT22;58633;49.470;11.004;2024-02-26T09:17:59;9.20;62.50
6824;DHT22;58633;49.470;11.004;2024-02-26T09:20:25;9.30;62.30
6824;DHT22;58633;49.470;11.004;2024-02-26T09:22:50;9.20;61.90
6824;DHT22;58633;49.470;11.004;2024-02-26T09:25:16;9.50;61.80
6824;DHT22;58633;49.470;11.004;2024-02-26T09:27:43;9.60;62.20
6824;DHT22;58633;49.470;11.004;2024-02-26T09:30:12;9.80;61.10
6824;DHT22;58633;49.470;11.004;2024-02-26T09:32:38;10.00;59.90
6824;DHT22;58633;49.470;11.004;2024-02-26T09:35:05;10.10;59.60
6824;DHT22;58633;49.470;11.004;2024-02-26T09:37:31;10.20;59.60
6824;DHT22;58633;49.470;11.004;2024-02-26T09:39:57;10.30;59.60
6824;DHT22;58633;49.470;11.004;2024-02-26T09:42:25;10.30;59.40
6824;DHT22;58633;49.470;11.004;2024-02-26T09:44:54;10.40;59.30
6824;DHT22;58633;49.470;11.004;2024-02-26T09:47:21;10.40;59.50
6824;DHT22;58633;49.470;11.004;2024-02-26T09:49:49;9.90;59.80
6824;DHT22;58633;49.470;11.004;2024-02-26T09:52:19;10.30;59.10
6824;DHT22;58633;49.470;11.004;2024-02-26T09:54:48;10.30;58.70
6824;DHT22;58633;49.470;11.004;2024-02-26T09:57:15;10.40;58.50
6824;DHT22;58633;49.470;11.004;2024-02-26T09:59:43;10.30;58.20
6824;DHT22;58633;49.470;11.004;2024-02-26T10:02:11;10.40;58.30
6824;DHT22;58633;49.470;11.004;2024-02-26T10:04:38;10.30;58.00
6824;DHT22;58633;49.470;11.004;2024-02-26T10:07:07;10.30;57.60
6824;DHT22;58633;49.470;11.004;2024-02-26T10:09:34;10.50;57.80
6824;DHT22;58633;49.470;11.004;2024-02-26T10:12:01;10.30;57.60
6824;DHT22;58633;49.470;11.004;2024-02-26T10:14:26;10.50;57.80
6824;DHT22;58633;49.470;11.004;2024-02-26T10:16:52;10.40;57.60
6824;DHT22;58633;49.470;11.004;2024-02-26T10:19:28;10.70;57.60
6824;DHT22;58633;49.470;11.004;2024-02-26T10:21:56;10.70;57.30
6824;DHT22;58633;49.470;11.004;2024-02-26T10:24:23;10.80;57.30
6824;DHT22;58633;49.470;11.004;2024-02-26T10:26:49;10.90;57.20
6824;DHT22;58633;49.470;11.004;2024-02-26T10:29:14;11.10;57.20
6824;DHT22;58633;49.470;11.004;2024-02-26T10:31:43;11.10;56.90
6824;DHT22;58633;49.470;11.004;2024-02-26T10:34:09;11.10;56.70
6824;DHT22;58633;49.470;11.004;2024-02-26T10:36:34;11.40;56.80
6824;DHT22;58633;49.470;11.004;2024-02-26T10:39:09;11.10;56.20
6824;DHT22;58633;49.470;11.004;2024-02-26T10:41:36;11.30;56.00
6824;DHT22;58633;49.470;11.004;2024-02-26T10:44:02;11.30;56.00
6824;DHT22;58633;49.470;11.004;2024-02-26T10:46:28;11.40;55.90
6824;DHT22;58633;49.470;11.004;2024-02-26T10:48:54;11.50;55.60
6824;DHT22;58633;49.470;11.004;2024-02-26T10:51:29;11.30;55.30
6824;DHT22;58633;49.470;11.004;2024-02-26T10:53:56;11.40;55.10
6824;DHT22;58633;49.470;11.004;2024-02-26T10:56:30;11.70;55.40
6824;DHT22;58633;49.470;11.004;2024-02-26T10:58:58;11.60;55.10
6824;DHT22;58633;49.470;11.004;2024-02-26T11:01:25;11.60;54.80
6824;DHT22;58633;49.470;11.004;2024-02-26T11:03:52;11.70;54.70
6824;DHT22;58633;49.470;11.004;2024-02-26T11:06:19;11.90;54.70
6824;DHT22;58633;49.470;11.004;2024-02-26T11:08:48;12.10;54.60
6824;DHT22;58633;49.470;11.004;2024-02-26T11:11:15;12.30;54.40
6824;DHT22;58633;49.470;11.004;2024-02-26T11:13:42;12.60;54.10
6824;DHT22;58633;49.470;11.004;2024-02-26T11:16:11;12.80;54.20
6824;DHT22;58633;49.470;11.004;2024-02-26T11:18:38;13.00;53.80
6824;DHT22;58633;49.470;11.004;2024-02-26T11:21:05;13.20;53.00
6824;DHT22;58633;49.470;11.004;2024-02-26T11:23:34;13.40;52.70
6824;DHT22;58633;49.470;11.004;2024-02-26T11:26:03;13.80;52.80
6824;DHT22;58633;49.470;11.004;2024-02-26T11:28:29;14.00;51.70
6824;DHT22;58633;49.470;11.004;2024-02-26T11:30:57;14.20;51.00
6824;DHT22;58633;49.470;11.004;2024-02-26T11:33:24;15.10;51.20
6824;DHT22;58633;49.470;11.004;2024-02-26T11:35:50;14.60;50.00
6824;DHT22;58633;49.470;11.004;2024-02-26T11:38:24;14.70;49.60
6824;DHT22;58633;49.470;11.004;2024-02-26T11:40:52;16.40;50.50
6824;DHT22;58633;49.470;11.004;2024-02-26T11:43:22;15.10;48.70
6824;DHT22;58633;49.470;11.004;2024-02-26T11:45:49;16.80;49.60
6824;DHT22;58633;49.470;11.004;2024-02-26T11:48:20;15.20;47.80
6824;DHT22;58633;49.470;11.004;2024-02-26T11:50:48;15.40;47.60
6824;DHT22;58633;49.470;11.004;2024-02-26T11:53:21;15.70;47.30
6824;DHT22;58633;49.470;11.004;2024-02-26T11:55:46;15.90;47.20
6824;DHT22;58633;49.470;11.004;2024-02-26T11:58:12;16.00;46.70
6824;DHT22;58633;49.470;11.004;2024-02-26T12:00:40;16.20;46.70
6824;DHT22;58633;49.470;11.004;2024-02-26T12:03:06;16.10;46.30
6824;DHT22;58633;49.470;11.004;2024-02-26T12:05:34;18.20;48.10
6824;DHT22;58633;49.470;11.004;2024-02-26T12:08:07;16.60;46.70
6824;DHT22;58633;49.470;11.004;2024-02-26T12:10:34;16.90;46.00
6824;DHT22;58633;49.470;11.004;2024-02-26T12:13:12;17.20;45.80
6824;DHT22;58633;49.470;11.004;2024-02-26T12:15:59;17.10;45.30
6824;DHT22;58633;49.470;11.004;2024-02-26T12:18:24;17.40;44.60
6824;DHT22;58633;49.470;11.004;2024-02-26T12:21:03;17.50;44.00
6824;DHT22;58633;49.470;11.004;2024-02-26T12:23:29;19.70;46.00
6824;DHT22;58633;49.470;11.004;2024-02-26T12:25:59;17.60;44.30
6824;DHT22;58633;49.470;11.004;2024-02-26T12:28:29;18.30;44.60
6824;DHT22;58633;49.470;11.004;2024-02-26T12:30:54;17.80;44.00
6824;DHT22;58633;49.470;11.004;2024-02-26T12:33:20;17.90;44.20
6824;DHT22;58633;49.470;11.004;2024-02-26T12:35:46;17.70;44.10
6824;DHT22;58633;49.470;11.004;2024-02-26T12:38:14;17.40;44.10
6824;DHT22;58633;49.470;11.004;2024-02-26T12:40:40;17.80;44.60
6824;DHT22;58633;49.470;11.004;2024-02-26T12:43:07;17.40;44.40
6824;DHT22;58633;49.470;11.004;2024-02-26T12:45:39;17.50;44.50
6824;DHT22;58633;49.470;11.004;2024-02-26T12:48:05;17.50;44.70
6824;DHT22;58633;49.470;11.004;2024-02-26T12:50:31;17.80;44.60
6824;DHT22;58633;49.470;11.004;2024-02-26T12:52:58;17.90;44.30
6824;DHT22;58633;49.470;11.004;2024-02-26T12:55:24;17.90;44.10
6824;DHT22;58633;49.470;11.004;2024-02-26T12:57:52;18.00;44.20
6824;DHT22;58633;49.470;11.004;2024-02-26T13:00:22;18.10;44.00
6824;DHT22;58633;49.470;11.004;2024-02-26T13:02:50;18.20;44.00
6824;DHT22;58633;49.470;11.004;2024-02-26T13:05:16;18.20;43.60
6824;DHT22;58633;49.470;11.004;2024-02-26T13:07:43;18.30;43.60
6824;DHT22;58633;49.470;11.004;2024-02-26T13:10:10;18.60;43.80
6824;DHT22;58633;49.470;11.004;2024-02-26T13:12:41;18.60;43.60
6824;DHT22;58633;49.470;11.004;2024-02-26T13:15:13;18.80;43.70
6824;DHT22;58633;49.470;11.004;2024-02-26T13:17:39;18.90;43.60
6824;DHT22;58633;49.470;11.004;2024-02-26T13:20:05;19.10;43.30
6824;DHT22;58633;49.470;11.004;2024-02-26T13:22:31;19.20;43.00
6824;DHT22;58633;49.470;11.004;2024-02-26T13:24:59;19.60;42.90
6824;DHT22;58633;49.470;11.004;2024-02-26T13:27:25;19.90;42.00
6824;DHT22;58633;49.470;11.004;2024-02-26T13:30:11;20.10;41.70
6824;DHT22;58633;49.470;11.004;2024-02-26T13:32:39;20.30;41.20
6824;DHT22;58633;49.470;11.004;2024-02-26T13:35:08;20.20;40.90
6824;DHT22;58633;49.470;11.004;2024-02-26T13:37:35;20.00;40.50
6824;DHT22;58633;49.470;11.004;2024-02-26T13:40:07;20.00;40.70
6824;DHT22;58633;49.470;11.004;2024-02-26T13:42:34;20.00;40.40
6824;DHT22;58633;49.470;11.004;2024-02-26T13:45:00;19.80;40.40
6824;DHT22;58633;49.470;11.004;2024-02-26T13:47:25;19.70;40.00
6824;DHT22;58633;49.470;11.004;2024-02-26T13:49:51;19.60;39.90
6824;DHT22;58633;49.470;11.004;2024-02-26T13:52:16;19.20;40.10
6824;DHT22;58633;49.470;11.004;2024-02-26T13:54:42;19.10;39.90
6824;DHT22;58633;49.470;11.004;2024-02-26T13:57:07;18.80;40.00
6824;DHT22;58633;49.470;11.004;2024-02-26T13:59:34;19.30;40.60
6824;DHT22;58633;49.470;11.004;2024-02-26T14:01:59;18.50;40.00
6824;DHT22;58633;49.470;11.004;2024-02-26T14:04:25;18.40;40.00
6824;DHT22;58633;49.470;11.004;2024-02-26T14:06:50;18.30;40.20
6824;DHT22;58633;49.470;11.004;2024-02-26T14:09:16;17.90;40.10
6824;DHT22;58633;49.470;11.004;2024-02-26T14:11:45;18.00;40.40
6824;DHT22;58633;49.470;11.004;2024-02-26T14:14:11;20.50;42.70
6824;DHT22;58633;49.470;11.004;2024-02-26T14:16:36;17.70;40.30
6824;DHT22;58633;49.470;11.004;2024-02-26T14:19:02;17.60;40.40
6824;DHT22;58633;49.470;11.004;2024-02-26T14:21:28;17.50;40.50
6824;DHT22;58633;49.470;11.004;2024-02-26T14:23:55;17.30;40.50
6824;DHT22;58633;49.470;11.004;2024-02-26T14:26:21;19.00;42.20
6824;DHT22;58633;49.470;11.004;2024-02-26T14:28:47;17.20;40.80
6824;DHT22;58633;49.470;11.004;2024-02-26T14:31:13;17.10;40.70
6824;DHT22;58633;49.470;11.004;2024-02-26T14:33:39;18.50;42.10
6824;DHT22;58633;49.470;11.004;2024-02-26T14:36:06;16.80;40.60
6824;DHT22;58633;49.470;11.004;2024-02-26T14:38:32;16.80;40.60
6824;DHT22;58633;49.470;11.004;2024-02-26T14:40:58;16.60;40.40
6824;DHT22;58633;49.470;11.004;2024-02-26T14:43:23;16.40;40.20
6824;DHT22;58633;49.470;11.004;2024-02-26T14:45:49;16.20;39.80
6824;DHT22;58633;49.470;11.004;2024-02-26T14:48:15;16.20;40.30
6824;DHT22;58633;49.470;11.004;2024-02-26T14:50:41;17.50;41.60
6824;DHT22;58633;49.470;11.004;2024-02-26T14:53:06;17.00;41.20
6824;DHT22;58633;49.470;11.004;2024-02-26T14:55:32;15.90;40.50
6824;DHT22;58633;49.470;11.004;2024-02-26T14:57:58;15.90;40.70
6824;DHT22;58633;49.470;11.004;2024-02-26T15:00:23;15.80;41.00
6824;DHT22;58633;49.470;11.004;2024-02-26T15:02:49;15.80;41.40
6824;DHT22;58633;49.470;11.004;2024-02-26T15:05:14;15.90;42.00
6824;DHT22;58633;49.470;11.004;2024-02-26T15:07:41;15.40;42.10
6824;DHT22;58633;49.470;11.004;2024-02-26T15:10:07;15.40;42.60
6824;DHT22;58633;49.470;11.004;2024-02-26T15:12:33;15.50;43.00
6824;DHT22;58633;49.470;11.004;2024-02-26T15:14:59;15.40;43.20
6824;DHT22;58633;49.470;11.004;2024-02-26T15:17:26;15.30;43.40
6824;DHT22;58633;49.470;11.004;2024-02-26T15:19:53;16.40;44.70
6824;DHT22;58633;49.470;11.004;2024-02-26T15:22:19;14.90;43.70
6824;DHT22;58633;49.470;11.004;2024-02-26T15:24:45;16.00;44.90
6824;DHT22;58633;49.470;11.004;2024-02-26T15:27:12;14.90;44.30
6824;DHT22;58633;49.470;11.004;2024-02-26T15:29:38;14.80;44.50
6824;DHT22;58633;49.470;11.004;2024-02-26T15:32:05;14.70;44.60
6824;DHT22;58633;49.470;11.004;2024-02-26T15:34:30;14.80;44.80